createdAt,value
2019-05-18T00:01:57.751Z,1.47
2019-05-18T00:07:00.182Z,1.73
2019-05-18T00:12:02.726Z,1.54
2019-05-18T00:17:07.892Z,1.57
2019-05-18T00:22:07.491Z,1.19
2019-05-18T00:27:09.925Z,1.20
2019-05-18T00:32:12.740Z,1.55
2019-05-18T00:37:15.146Z,1.33
2019-05-18T00:42:17.881Z,1.19
2019-05-18T00:47:20.351Z,1.40
2019-05-18T00:52:22.813Z,1.47
2019-05-18T00:57:25.566Z,1.13
2019-05-18T01:02:28.002Z,1.22
2019-05-18T01:07:30.514Z,1.26
2019-05-18T01:12:32.968Z,1.18
2019-05-18T01:17:35.522Z,1.42
2019-05-18T01:22:37.920Z,1.23
2019-05-18T01:27:40.500Z,1.27
2019-05-18T01:32:43.043Z,1.43
2019-05-18T01:37:45.508Z,1.34
2019-05-18T01:42:47.910Z,1.30
2019-05-18T01:47:50.558Z,1.34
2019-05-18T01:52:52.939Z,1.45
2019-05-18T01:57:55.474Z,1.38
2019-05-18T02:02:58.072Z,1.48
2019-05-18T02:08:00.646Z,1.53
2019-05-18T02:13:03.406Z,1.42
2019-05-18T02:18:06.229Z,1.35
2019-05-18T02:23:08.598Z,1.53
2019-05-18T02:28:11.154Z,1.51
2019-05-18T02:33:13.594Z,1.50
2019-05-18T02:38:16.193Z,1.24
2019-05-18T02:43:18.899Z,1.49
2019-05-18T02:48:22.336Z,1.45
2019-05-18T02:53:24.759Z,1.41
2019-05-18T02:58:27.284Z,1.53
2019-05-18T03:03:29.882Z,1.73
2019-05-18T03:08:32.301Z,1.61
2019-05-18T03:13:34.806Z,1.71
2019-05-18T03:18:37.325Z,1.44
2019-05-18T03:23:40.273Z,1.59
2019-05-18T03:28:43.121Z,1.41
2019-05-18T03:33:45.625Z,1.50
2019-05-18T03:38:48.475Z,1.60
2019-05-18T03:43:51.286Z,1.54
2019-05-18T03:48:53.828Z,1.72
2019-05-18T03:53:56.207Z,1.65
2019-05-18T03:58:59.053Z,1.69
2019-05-18T04:04:01.448Z,1.51
2019-05-18T04:09:03.861Z,1.65
2019-05-18T04:14:08.491Z,1.64
2019-05-18T04:19:08.168Z,1.45
2019-05-18T04:24:10.941Z,1.59
2019-05-18T04:29:13.425Z,1.54
2019-05-18T04:34:15.953Z,1.46
2019-05-18T04:39:18.529Z,1.44
2019-05-18T04:44:21.128Z,1.55
2019-05-18T04:49:24.611Z,1.66
2019-05-18T04:54:29.309Z,1.73
2019-05-18T04:59:31.796Z,1.56
2019-05-18T05:04:35.404Z,1.69
2019-05-18T05:09:39.169Z,1.64
2019-05-18T05:14:42.714Z,1.90
2019-05-18T05:19:45.889Z,1.82
2019-05-18T05:24:48.838Z,1.59
2019-05-18T05:29:51.508Z,1.49
2019-05-18T05:34:54.068Z,1.57
2019-05-18T05:39:57.421Z,1.71
2019-05-18T05:45:00.009Z,1.57
2019-05-18T05:50:03.065Z,1.71
2019-05-18T05:55:05.802Z,1.69
2019-05-18T06:00:09.433Z,1.61
2019-05-18T06:05:12.225Z,1.75
2019-05-18T06:10:14.977Z,1.78
2019-05-18T06:15:17.647Z,1.53
2019-05-18T06:20:20.366Z,1.74
2019-05-18T06:25:22.892Z,1.57
2019-05-18T06:30:25.446Z,1.74
2019-05-18T06:35:27.996Z,1.62
2019-05-18T06:40:30.690Z,1.68
2019-05-18T06:45:33.614Z,1.63
2019-05-18T06:50:36.449Z,1.62
2019-05-18T06:55:40.459Z,1.91
2019-05-18T07:00:43.983Z,1.78
2019-05-18T07:05:46.508Z,1.87
2019-05-18T07:10:49.683Z,1.74
2019-05-18T07:15:52.329Z,1.91
2019-05-18T07:20:55.710Z,1.80
2019-05-18T07:25:58.591Z,1.81
2019-05-18T07:31:01.039Z,1.79
2019-05-18T07:36:03.618Z,1.92
2019-05-18T07:41:06.202Z,1.88
2019-05-18T07:46:08.943Z,1.76
2019-05-18T07:51:11.826Z,1.69
2019-05-18T07:56:14.472Z,1.92
2019-05-18T08:01:16.895Z,1.61
2019-05-18T08:06:19.485Z,1.75
2019-05-18T08:11:21.983Z,1.80
2019-05-18T08:16:24.644Z,1.85
2019-05-18T08:21:27.302Z,1.91
2019-05-18T08:26:29.945Z,1.70
2019-05-18T08:31:32.899Z,1.69
2019-05-18T08:36:35.471Z,1.71
2019-05-18T08:41:38.184Z,1.62
2019-05-18T08:46:40.937Z,1.66
2019-05-18T08:51:43.572Z,1.53
2019-05-18T08:56:47.483Z,1.84
2019-05-18T09:01:50.513Z,1.69
2019-05-18T09:06:53.188Z,1.81
2019-05-18T09:11:55.926Z,1.86
2019-05-18T09:16:58.904Z,1.80
2019-05-18T09:22:03.350Z,1.85
2019-05-18T09:27:06.273Z,1.64
2019-05-18T09:32:09.521Z,1.73
2019-05-18T09:37:12.141Z,1.89
2019-05-18T09:42:15.627Z,1.79
2019-05-18T09:47:17.972Z,1.91
2019-05-18T09:52:43.267Z,1.54
2019-05-18T09:57:25.814Z,1.89
2019-05-18T10:02:28.988Z,1.69
2019-05-18T10:07:32.733Z,1.71
2019-05-18T10:12:35.243Z,1.86
2019-05-18T10:17:37.784Z,1.71
2019-05-18T10:22:55.526Z,1.73
2019-05-18T10:27:44.193Z,1.88
2019-05-18T10:32:46.978Z,1.82
2019-05-18T10:37:49.772Z,1.68
2019-05-18T10:42:52.683Z,1.68
2019-05-18T10:47:55.246Z,1.66
2019-05-18T10:52:59.228Z,1.48
2019-05-18T10:58:01.692Z,1.48
2019-05-18T11:03:04.473Z,1.85
2019-05-18T11:08:06.931Z,1.49
2019-05-18T11:13:09.467Z,1.64
2019-05-18T11:18:12.163Z,1.54
2019-05-18T11:23:14.626Z,1.71
2019-05-18T11:28:17.056Z,1.73
2019-05-18T11:33:19.635Z,1.78
2019-05-18T11:38:23.044Z,1.83
2019-05-18T11:43:25.600Z,1.76
2019-05-18T11:48:28.256Z,1.56
2019-05-18T11:53:30.969Z,1.46
2019-05-18T11:58:34.121Z,1.74
2019-05-18T12:03:37.525Z,1.49
2019-05-18T12:08:41.133Z,1.75
2019-05-18T12:13:44.925Z,1.74
2019-05-18T12:18:48.046Z,1.71
2019-05-18T12:23:50.686Z,1.70
2019-05-18T12:28:53.251Z,1.88
2019-05-18T12:33:55.915Z,1.48
2019-05-18T12:38:58.477Z,1.73
2019-05-18T12:44:03.129Z,1.91
2019-05-18T12:49:05.903Z,1.92
2019-05-18T12:54:09.213Z,2.06
2019-05-18T12:59:12.249Z,1.88
2019-05-18T13:04:14.895Z,1.78
2019-05-18T13:09:17.636Z,1.59
2019-05-18T13:14:21.050Z,1.77
2019-05-18T13:19:23.650Z,1.86
2019-05-18T13:24:26.173Z,1.84
2019-05-18T13:29:28.823Z,2.07
2019-05-18T13:34:31.658Z,1.73
2019-05-18T13:39:34.998Z,1.60
2019-05-18T13:44:38.150Z,1.84
2019-05-18T13:49:41.461Z,1.88
2019-05-18T13:54:43.998Z,2.00
2019-05-18T13:59:46.457Z,1.83
2019-05-18T14:04:49.023Z,2.08
2019-05-18T14:09:51.482Z,2.27
2019-05-18T14:14:54.715Z,2.08
2019-05-18T14:19:57.471Z,1.90
2019-05-18T14:25:01.146Z,1.95
2019-05-18T14:30:06.350Z,1.96
2019-05-18T14:35:10.314Z,2.09
2019-05-18T14:40:13.005Z,1.85
2019-05-18T14:45:15.698Z,1.96
2019-05-18T14:50:18.275Z,1.97
2019-05-18T14:55:32.769Z,1.97
2019-05-18T15:00:23.118Z,1.86
2019-05-18T15:05:26.014Z,1.93
2019-05-18T15:10:28.772Z,2.09
2019-05-18T15:15:31.431Z,2.04
2019-05-18T15:20:34.357Z,2.38
2019-05-18T15:25:49.561Z,2.27
2019-05-18T15:30:39.136Z,2.05
2019-05-18T15:35:41.695Z,2.18
2019-05-18T15:40:44.368Z,2.35
2019-05-18T15:45:47.401Z,2.40
2019-05-18T15:50:50.025Z,2.29
2019-05-18T15:56:04.823Z,2.07
2019-05-18T16:00:55.054Z,2.32
2019-05-18T16:05:58.059Z,2.26
2019-05-18T16:11:00.725Z,2.23
2019-05-18T16:16:03.271Z,2.40
2019-05-18T16:21:06.054Z,2.27
2019-05-18T16:26:20.674Z,2.36
2019-05-18T16:31:10.924Z,2.58
2019-05-18T16:36:13.763Z,2.48
2019-05-18T16:41:16.457Z,2.35
2019-05-18T16:46:19.732Z,2.39
2019-05-18T16:51:22.391Z,2.77
2019-05-18T16:56:34.898Z,2.78
2019-05-18T17:01:28.605Z,2.56
2019-05-18T17:06:31.253Z,2.53
2019-05-18T17:11:33.917Z,2.44
2019-05-18T17:16:37.426Z,2.66
2019-05-18T17:21:40.016Z,2.57
2019-05-18T17:26:52.277Z,2.69
2019-05-18T17:31:47.367Z,2.60
2019-05-18T17:36:52.565Z,2.72
2019-05-18T17:41:52.225Z,2.55
2019-05-18T17:46:54.845Z,2.72
2019-05-18T17:51:58.264Z,2.67
2019-05-18T17:57:08.532Z,2.96
2019-05-18T18:02:05.251Z,2.84
2019-05-18T18:07:08.150Z,2.85
2019-05-18T18:12:11.827Z,2.80
2019-05-18T18:17:17.652Z,3.08
2019-05-18T18:22:17.578Z,2.95
2019-05-18T18:27:25.098Z,2.87
2019-05-18T18:32:23.251Z,3.44
2019-05-18T18:37:27.491Z,3.97
2019-05-18T18:42:30.052Z,3.40
2019-05-18T18:47:32.919Z,3.04
2019-05-18T18:52:35.874Z,3.41
2019-05-18T18:57:41.844Z,2.77
2019-05-18T19:02:41.232Z,2.97
2019-05-18T19:07:44.097Z,2.98
2019-05-18T19:12:46.872Z,3.08
2019-05-18T19:17:49.503Z,2.81
2019-05-18T19:22:52.524Z,2.72
2019-05-18T19:27:55.498Z,2.89
2019-05-18T19:32:57.200Z,2.57
2019-05-18T19:38:00.080Z,2.60
2019-05-18T19:43:02.837Z,2.71
2019-05-18T19:48:05.548Z,2.66
2019-05-18T19:53:08.175Z,2.44
2019-05-18T19:58:10.649Z,2.68
2019-05-18T20:03:13.406Z,2.94
2019-05-18T20:08:15.902Z,2.52
2019-05-18T20:13:18.570Z,2.65
2019-05-18T20:18:21.406Z,2.86
2019-05-18T20:23:24.026Z,3.51
2019-05-18T20:28:26.678Z,2.83
2019-05-18T20:33:29.207Z,3.36
2019-05-18T20:38:31.817Z,2.61
2019-05-18T20:43:34.515Z,2.23
2019-05-18T20:48:37.201Z,2.47
2019-05-18T20:53:41.118Z,2.29
2019-05-18T20:58:41.938Z,2.43
2019-05-18T21:03:44.629Z,2.20
2019-05-18T21:08:47.478Z,2.47
2019-05-18T21:13:49.957Z,2.50
2019-05-18T21:18:52.481Z,2.44
2019-05-18T21:23:55.056Z,2.50
2019-05-18T21:29:00.523Z,2.44
2019-05-18T21:33:59.895Z,2.44
2019-05-18T21:39:02.391Z,2.35
2019-05-18T21:44:05.200Z,2.58
2019-05-18T21:49:08.013Z,2.41
2019-05-18T21:54:10.783Z,2.51
2019-05-18T21:59:13.422Z,2.51
2019-05-18T22:04:16.240Z,2.50
2019-05-18T22:09:18.782Z,2.52
2019-05-18T22:14:21.450Z,2.44
2019-05-18T22:19:23.886Z,2.66
2019-05-18T22:24:26.380Z,2.54
2019-05-18T22:29:31.853Z,2.41
2019-05-18T22:34:35.047Z,2.51
2019-05-18T22:39:37.740Z,2.74
2019-05-18T22:44:40.204Z,2.72
2019-05-18T22:49:42.723Z,2.81
2019-05-18T22:54:45.283Z,2.51
2019-05-18T22:59:47.886Z,2.37
2019-05-18T23:04:50.337Z,2.45
2019-05-18T23:09:52.769Z,2.66
2019-05-18T23:14:55.203Z,2.54
2019-05-18T23:19:58.888Z,3.35
2019-05-18T23:25:01.812Z,2.67
2019-05-18T23:30:04.412Z,2.62
2019-05-18T23:35:07.677Z,2.84
2019-05-18T23:40:10.797Z,2.62
2019-05-18T23:45:13.412Z,2.79
2019-05-18T23:50:16.201Z,2.90
2019-05-18T23:55:19.396Z,2.60
